createdAt,value
2023-04-26T00:02:15.968Z,4.25
2023-04-26T00:04:42.441Z,4.00
2023-04-26T00:07:08.805Z,3.50
2023-04-26T00:09:35.311Z,3.42
2023-04-26T00:12:01.885Z,3.38
2023-04-26T00:14:28.686Z,4.40
2023-04-26T00:16:54.974Z,3.40
2023-04-26T00:19:21.426Z,4.45
2023-04-26T00:21:47.732Z,3.78
2023-04-26T00:24:14.028Z,3.85
2023-04-26T00:26:40.371Z,4.18
2023-04-26T00:29:07.109Z,4.25
2023-04-26T00:31:33.580Z,4.18
2023-04-26T00:34:00.752Z,3.95
2023-04-26T00:36:27.729Z,4.57
2023-04-26T00:38:54.168Z,5.25
2023-04-26T00:41:20.659Z,4.97
2023-04-26T00:43:47.012Z,5.38
2023-04-26T00:46:13.437Z,4.50
2023-04-26T00:48:39.839Z,4.90
2023-04-26T00:51:06.460Z,4.10
2023-04-26T00:53:34.249Z,4.63
2023-04-26T00:56:00.796Z,4.20
2023-04-26T00:58:27.421Z,4.97
2023-04-26T01:00:54.005Z,5.20
2023-04-26T01:03:20.635Z,5.22
2023-04-26T01:05:47.100Z,4.90
2023-04-26T01:08:17.121Z,4.95
2023-04-26T01:10:43.857Z,4.47
2023-04-26T01:13:11.373Z,5.10
2023-04-26T01:15:37.957Z,4.90
2023-04-26T01:18:05.015Z,4.32
2023-04-26T01:20:32.293Z,4.90
2023-04-26T01:22:59.132Z,4.55
2023-04-26T01:25:25.644Z,4.55
2023-04-26T01:27:51.980Z,5.20
2023-04-26T01:30:18.478Z,4.72
2023-04-26T01:32:44.907Z,5.05
2023-04-26T01:35:11.367Z,4.53
2023-04-26T01:37:37.701Z,4.95
2023-04-26T01:40:07.007Z,4.70
2023-04-26T01:42:33.390Z,4.30
2023-04-26T01:44:59.713Z,5.22
2023-04-26T01:47:26.528Z,4.57
2023-04-26T01:49:53.038Z,4.47
2023-04-26T01:52:19.478Z,4.53
2023-04-26T01:54:45.787Z,4.03
2023-04-26T01:57:12.268Z,4.20
2023-04-26T01:59:38.592Z,4.15
2023-04-26T02:02:05.488Z,4.53
2023-04-26T02:04:32.160Z,4.80
2023-04-26T02:06:58.918Z,5.25
2023-04-26T02:09:25.231Z,4.35
2023-04-26T02:11:51.535Z,3.78
2023-04-26T02:14:17.931Z,3.70
2023-04-26T02:16:44.857Z,4.00
2023-04-26T02:19:11.205Z,3.88
2023-04-26T02:21:54.171Z,4.55
2023-04-26T02:24:21.505Z,3.67
2023-04-26T02:26:47.800Z,4.53
2023-04-26T02:29:14.224Z,4.53
2023-04-26T02:31:40.641Z,5.70
2023-04-26T02:34:06.910Z,4.60
2023-04-26T02:36:33.465Z,4.30
2023-04-26T02:39:00.170Z,3.97
2023-04-26T02:41:26.465Z,4.53
2023-04-26T02:43:52.795Z,4.60
2023-04-26T02:46:19.403Z,4.43
2023-04-26T02:48:46.158Z,4.82
2023-04-26T02:51:12.476Z,4.55
2023-04-26T02:53:38.735Z,4.80
2023-04-26T02:56:06.021Z,4.75
2023-04-26T02:58:32.478Z,5.15
2023-04-26T03:01:01.587Z,4.03
2023-04-26T03:03:29.123Z,4.53
2023-04-26T03:05:55.506Z,4.78
2023-04-26T03:08:21.939Z,4.82
2023-04-26T03:10:48.252Z,4.40
2023-04-26T03:13:15.145Z,4.28
2023-04-26T03:15:47.448Z,4.07
2023-04-26T03:18:13.816Z,4.55
2023-04-26T03:20:40.147Z,4.50
2023-04-26T03:23:06.679Z,4.32
2023-04-26T03:25:33.206Z,3.75
2023-04-26T03:27:59.881Z,5.22
2023-04-26T03:30:26.359Z,4.50
2023-04-26T03:32:53.196Z,5.15
2023-04-26T03:35:19.562Z,4.75
2023-04-26T03:37:45.881Z,5.07
2023-04-26T03:40:12.313Z,5.20
2023-04-26T03:42:38.729Z,5.22
2023-04-26T03:45:05.436Z,4.90
2023-04-26T03:47:31.866Z,5.57
2023-04-26T03:49:58.821Z,5.75
2023-04-26T03:52:25.333Z,6.03
2023-04-26T03:54:51.727Z,6.43
2023-04-26T03:57:18.124Z,5.88
2023-04-26T03:59:44.420Z,6.03
2023-04-26T04:02:10.813Z,6.40
2023-04-26T04:04:37.418Z,6.85
2023-04-26T04:07:03.823Z,6.22
2023-04-26T04:09:30.129Z,6.10
2023-04-26T04:11:56.424Z,6.40
2023-04-26T04:14:22.685Z,6.15
2023-04-26T04:16:49.031Z,7.22
2023-04-26T04:19:15.458Z,5.65
2023-04-26T04:21:43.291Z,6.53
2023-04-26T04:24:09.676Z,6.10
2023-04-26T04:26:36.004Z,7.32
2023-04-26T04:29:08.708Z,6.40
2023-04-26T04:31:36.131Z,6.35
2023-04-26T04:34:02.777Z,5.93
2023-04-26T04:36:29.113Z,6.53
2023-04-26T04:38:55.449Z,6.00
2023-04-26T04:41:22.362Z,6.20
2023-04-26T04:43:48.757Z,6.47
2023-04-26T04:46:15.464Z,5.35
2023-04-26T04:48:42.083Z,5.72
2023-04-26T04:51:08.441Z,5.93
2023-04-26T04:53:34.764Z,5.65
2023-04-26T04:56:01.486Z,5.70
2023-04-26T04:58:28.020Z,6.05
2023-04-26T05:00:55.583Z,6.30
2023-04-26T05:03:22.849Z,6.07
2023-04-26T05:05:49.325Z,6.10
2023-04-26T05:08:15.743Z,5.63
2023-04-26T05:10:42.241Z,5.25
2023-04-26T05:13:08.599Z,7.47
2023-04-26T05:15:35.121Z,5.57
2023-04-26T05:18:02.013Z,5.63
2023-04-26T05:20:29.824Z,5.45
2023-04-26T05:22:56.179Z,6.05
2023-04-26T05:25:22.960Z,4.57
2023-04-26T05:27:49.437Z,5.00
2023-04-26T05:30:15.860Z,4.78
2023-04-26T05:32:42.740Z,5.18
2023-04-26T05:35:09.200Z,5.75
2023-04-26T05:37:35.874Z,6.40
2023-04-26T05:40:02.451Z,5.40
2023-04-26T05:42:29.124Z,4.97
2023-04-26T05:44:59.589Z,4.80
2023-04-26T05:47:26.455Z,4.50
2023-04-26T05:49:53.383Z,4.18
2023-04-26T05:52:19.757Z,4.25
2023-04-26T05:54:46.130Z,5.00
2023-04-26T05:57:12.687Z,5.65
2023-04-26T05:59:39.532Z,4.28
2023-04-26T06:02:06.026Z,4.60
2023-04-26T06:04:32.805Z,4.30
2023-04-26T06:07:00.447Z,3.67
2023-04-26T06:09:27.704Z,4.15
2023-04-26T06:11:54.041Z,5.00
2023-04-26T06:14:29.920Z,4.75
2023-04-26T06:16:57.733Z,3.60
2023-04-26T06:19:24.164Z,3.63
2023-04-26T06:21:52.122Z,3.40
2023-04-26T06:24:18.474Z,3.05
2023-04-26T06:26:44.782Z,3.40
2023-04-26T06:29:11.126Z,4.60
2023-04-26T06:31:37.572Z,3.65
2023-04-26T06:34:04.438Z,3.53
2023-04-26T06:36:31.306Z,4.03
2023-04-26T06:38:57.693Z,4.05
2023-04-26T06:41:24.021Z,3.85
2023-04-26T06:43:50.593Z,5.43
2023-04-26T06:46:17.480Z,3.88
2023-04-26T06:48:43.821Z,4.22
2023-04-26T06:51:10.226Z,4.50
2023-04-26T06:53:36.871Z,3.85
2023-04-26T06:56:03.668Z,3.92
2023-04-26T06:58:30.090Z,4.40
2023-04-26T07:00:56.440Z,3.83
2023-04-26T07:03:23.454Z,3.10
2023-04-26T07:05:49.929Z,3.92
2023-04-26T07:08:16.602Z,3.05
2023-04-26T07:10:42.948Z,3.40
2023-04-26T07:13:09.672Z,2.90
2023-04-26T07:15:36.334Z,2.95
2023-04-26T07:18:02.712Z,2.65
2023-04-26T07:20:29.069Z,3.45
2023-04-26T07:22:55.398Z,3.28
2023-04-26T07:25:21.839Z,2.60
2023-04-26T07:27:48.152Z,2.60
2023-04-26T07:30:14.574Z,2.90
2023-04-26T07:32:41.044Z,3.42
2023-04-26T07:35:07.864Z,2.92
2023-04-26T07:37:34.130Z,3.35
2023-04-26T07:40:00.407Z,3.05
2023-04-26T07:42:26.653Z,3.35
2023-04-26T07:44:52.962Z,2.83
2023-04-26T07:47:19.371Z,3.10
2023-04-26T07:49:47.637Z,2.50
2023-04-26T07:52:14.549Z,2.85
2023-04-26T07:54:40.950Z,2.25
2023-04-26T07:57:07.398Z,1.83
2023-04-26T07:59:33.720Z,1.73
2023-04-26T08:02:00.026Z,1.80
2023-04-26T08:04:36.681Z,1.67
2023-04-26T08:07:03.198Z,1.77
2023-04-26T08:09:30.732Z,1.70
2023-04-26T08:11:57.702Z,1.70
2023-04-26T08:14:24.084Z,1.85
2023-04-26T08:16:51.456Z,1.50
2023-04-26T08:19:17.822Z,2.53
2023-04-26T08:21:44.103Z,2.78
2023-04-26T08:24:10.443Z,1.70
2023-04-26T08:26:37.817Z,2.10
2023-04-26T08:29:04.303Z,1.77
2023-04-26T08:31:30.670Z,1.60
2023-04-26T08:33:57.028Z,1.58
2023-04-26T08:36:23.392Z,1.65
2023-04-26T08:38:49.705Z,1.60
2023-04-26T08:41:19.634Z,1.50
2023-04-26T08:43:46.189Z,1.60
2023-04-26T08:46:16.424Z,1.80
2023-04-26T08:48:43.018Z,2.17
2023-04-26T08:51:12.011Z,1.98
2023-04-26T08:53:38.996Z,2.47
2023-04-26T08:56:06.521Z,1.70
2023-04-26T08:58:32.950Z,2.67
2023-04-26T09:01:00.309Z,3.65
2023-04-26T09:03:27.012Z,2.28
2023-04-26T09:05:53.678Z,2.90
2023-04-26T09:08:20.382Z,2.00
2023-04-26T09:10:46.961Z,2.00
2023-04-26T09:13:14.521Z,2.40
2023-04-26T09:15:41.661Z,2.08
2023-04-26T09:18:18.248Z,1.70
2023-04-26T09:20:45.104Z,1.90
2023-04-26T09:23:11.618Z,2.00
2023-04-26T09:25:38.154Z,2.25
2023-04-26T09:28:18.408Z,1.45
2023-04-26T09:30:44.742Z,1.67
2023-04-26T09:33:11.441Z,1.85
2023-04-26T09:35:37.734Z,1.42
2023-04-26T09:38:09.663Z,1.20
2023-04-26T09:40:45.870Z,1.75
2023-04-26T09:43:13.337Z,2.28
2023-04-26T09:45:50.797Z,1.35
2023-04-26T09:48:17.488Z,3.22
2023-04-26T09:50:47.745Z,2.40
2023-04-26T09:53:26.403Z,1.70
2023-04-26T09:55:53.661Z,1.50
2023-04-26T09:58:20.026Z,1.48
2023-04-26T10:00:49.816Z,2.35
2023-04-26T10:03:18.087Z,1.30
2023-04-26T10:05:44.558Z,1.40
2023-04-26T10:08:11.577Z,1.85
2023-04-26T10:10:38.349Z,1.70
2023-04-26T10:13:05.952Z,1.48
2023-04-26T10:15:32.507Z,1.70
2023-04-26T10:17:59.164Z,1.77
2023-04-26T10:20:28.215Z,1.30
2023-04-26T10:23:01.003Z,1.70
2023-04-26T10:25:37.484Z,1.40
2023-04-26T10:28:04.770Z,1.75
2023-04-26T10:30:32.139Z,1.20
2023-04-26T10:32:58.943Z,1.38
2023-04-26T10:35:26.484Z,1.70
2023-04-26T10:38:01.884Z,1.50
2023-04-26T10:40:29.900Z,1.60
2023-04-26T10:43:18.335Z,1.55
2023-04-26T10:45:45.688Z,1.30
2023-04-26T10:48:19.306Z,1.70
2023-04-26T10:51:13.067Z,1.65
2023-04-26T10:53:45.450Z,1.40
2023-04-26T10:56:12.300Z,1.40
2023-04-26T10:58:41.397Z,1.60
2023-04-26T11:01:08.628Z,1.52
2023-04-26T11:03:35.360Z,1.77
2023-04-26T11:06:05.677Z,2.25
2023-04-26T11:08:32.291Z,1.27
2023-04-26T11:11:04.821Z,1.58
2023-04-26T11:13:31.660Z,1.52
2023-04-26T11:16:05.787Z,1.40
2023-04-26T11:18:32.674Z,1.35
2023-04-26T11:20:59.938Z,1.38
2023-04-26T11:23:27.396Z,1.60
2023-04-26T11:25:54.999Z,1.52
2023-04-26T11:28:23.239Z,1.45
2023-04-26T11:30:50.340Z,1.52
2023-04-26T11:33:22.136Z,1.40
2023-04-26T11:35:49.280Z,1.25
2023-04-26T11:38:15.749Z,1.73
2023-04-26T11:40:42.185Z,1.42
2023-04-26T11:43:09.577Z,1.60
2023-04-26T11:45:37.224Z,2.38
2023-04-26T11:48:04.992Z,1.30
2023-04-26T11:50:32.191Z,1.58
2023-04-26T11:52:59.970Z,1.80
2023-04-26T11:55:31.853Z,1.75
2023-04-26T11:57:59.040Z,1.67
2023-04-26T12:00:25.826Z,1.20
2023-04-26T12:02:53.338Z,1.60
2023-04-26T12:05:22.757Z,1.27
2023-04-26T12:07:52.759Z,2.10
2023-04-26T12:10:20.458Z,1.80
2023-04-26T12:12:51.001Z,1.80
2023-04-26T12:15:18.450Z,1.45
2023-04-26T12:18:00.181Z,1.42
2023-04-26T12:20:30.347Z,1.88
2023-04-26T12:23:00.720Z,1.60
2023-04-26T12:25:27.429Z,2.00
2023-04-26T12:27:54.167Z,1.70
2023-04-26T12:30:21.524Z,1.80
2023-04-26T12:32:48.008Z,1.70
2023-04-26T12:35:14.683Z,1.70
2023-04-26T12:37:41.223Z,1.92
2023-04-26T12:40:09.278Z,1.40
2023-04-26T12:42:35.619Z,1.65
2023-04-26T12:45:02.050Z,1.83
2023-04-26T12:47:28.623Z,1.67
2023-04-26T12:49:55.322Z,2.00
2023-04-26T12:52:21.873Z,2.03
2023-04-26T12:54:49.031Z,1.75
2023-04-26T12:57:15.575Z,1.45
2023-04-26T12:59:41.883Z,1.80
2023-04-26T13:02:08.339Z,2.03
2023-04-26T13:04:36.221Z,1.70
2023-04-26T13:07:04.892Z,1.70
2023-04-26T13:09:31.203Z,1.95
2023-04-26T13:11:58.046Z,1.60
2023-04-26T13:14:24.358Z,1.45
2023-04-26T13:16:51.116Z,2.15
2023-04-26T13:19:17.538Z,1.70
2023-04-26T13:21:43.995Z,1.70
2023-04-26T13:24:10.546Z,1.38
2023-04-26T13:26:37.527Z,1.75
2023-04-26T13:29:04.915Z,1.50
2023-04-26T13:31:32.133Z,2.45
2023-04-26T13:33:58.931Z,1.80
2023-04-26T13:36:26.105Z,1.73
2023-04-26T13:38:52.428Z,1.70
2023-04-26T13:41:18.852Z,1.63
2023-04-26T13:43:45.192Z,2.35
2023-04-26T13:46:11.537Z,1.40
2023-04-26T13:48:37.930Z,1.70
2023-04-26T13:51:07.072Z,1.88
2023-04-26T13:53:34.601Z,2.60
2023-04-26T13:56:01.075Z,1.85
2023-04-26T13:58:27.387Z,1.85
2023-04-26T14:00:53.767Z,1.60
2023-04-26T14:03:20.349Z,1.38
2023-04-26T14:05:46.825Z,1.70
2023-04-26T14:08:13.164Z,1.67
2023-04-26T14:10:39.545Z,1.60
2023-04-26T14:13:05.838Z,1.40
2023-04-26T14:15:32.238Z,1.63
2023-04-26T14:17:58.850Z,2.33
2023-04-26T14:20:25.550Z,1.58
2023-04-26T14:22:51.863Z,1.65
2023-04-26T14:25:18.954Z,1.52
2023-04-26T14:27:45.283Z,1.88
2023-04-26T14:30:11.710Z,1.60
2023-04-26T14:32:38.031Z,1.38
2023-04-26T14:35:04.519Z,1.40
2023-04-26T14:37:30.846Z,1.45
2023-04-26T14:39:57.179Z,1.80
2023-04-26T14:42:23.476Z,1.85
2023-04-26T14:44:49.816Z,1.80
2023-04-26T14:47:16.296Z,1.60
2023-04-26T14:49:42.631Z,1.15
2023-04-26T14:52:08.914Z,1.48
2023-04-26T14:54:38.908Z,1.45
2023-04-26T14:57:05.325Z,1.50
2023-04-26T14:59:31.633Z,1.70
2023-04-26T15:01:58.406Z,1.42
2023-04-26T15:04:25.077Z,1.30
2023-04-26T15:06:51.550Z,2.17
2023-04-26T15:09:18.633Z,1.33
2023-04-26T15:11:44.981Z,1.30
2023-04-26T15:14:11.397Z,1.60
2023-04-26T15:16:37.746Z,2.10
2023-04-26T15:19:04.134Z,1.65
2023-04-26T15:21:31.498Z,1.30
2023-04-26T15:23:58.165Z,1.52
2023-04-26T15:26:25.861Z,1.52
2023-04-26T15:28:52.178Z,2.47
2023-04-26T15:31:18.593Z,1.45
2023-04-26T15:33:44.948Z,1.45
2023-04-26T15:36:11.269Z,1.58
2023-04-26T15:38:37.666Z,1.90
2023-04-26T15:41:04.383Z,1.30
2023-04-26T15:43:30.914Z,1.80
2023-04-26T15:45:57.334Z,1.58
2023-04-26T15:48:23.782Z,1.38
2023-04-26T15:50:53.805Z,1.80
2023-04-26T15:53:21.510Z,1.50
2023-04-26T15:55:47.828Z,2.00
2023-04-26T15:58:14.458Z,1.92
2023-04-26T16:00:40.868Z,1.17
2023-04-26T16:03:07.515Z,1.40
2023-04-26T16:05:34.276Z,1.63
2023-04-26T16:08:00.691Z,1.67
2023-04-26T16:10:27.050Z,1.55
2023-04-26T16:12:53.376Z,1.52
2023-04-26T16:15:19.804Z,1.67
2023-04-26T16:17:46.179Z,1.58
2023-04-26T16:20:12.922Z,1.98
2023-04-26T16:22:39.295Z,1.88
2023-04-26T16:25:06.994Z,1.77
2023-04-26T16:27:33.501Z,1.58
2023-04-26T16:30:00.560Z,1.92
2023-04-26T16:32:26.954Z,1.58
2023-04-26T16:34:53.411Z,1.52
2023-04-26T16:37:19.863Z,1.55
2023-04-26T16:39:46.436Z,1.77
2023-04-26T16:42:12.761Z,1.73
2023-04-26T16:44:40.309Z,1.80
2023-04-26T16:47:06.787Z,1.70
2023-04-26T16:49:33.188Z,1.50
2023-04-26T16:52:00.136Z,1.40
2023-04-26T16:54:26.471Z,2.20
2023-04-26T16:56:52.956Z,1.73
2023-04-26T16:59:19.397Z,1.40
2023-04-26T17:01:47.227Z,1.80
2023-04-26T17:04:13.942Z,1.60
2023-04-26T17:06:40.475Z,1.83
2023-04-26T17:09:08.267Z,1.77
2023-04-26T17:11:37.187Z,1.92
2023-04-26T17:14:04.291Z,1.70
2023-04-26T17:16:31.259Z,2.00
2023-04-26T17:18:58.525Z,1.65
2023-04-26T17:21:25.511Z,1.67
2023-04-26T17:23:52.096Z,1.67
2023-04-26T17:26:18.536Z,2.05
2023-04-26T17:28:44.863Z,1.65
2023-04-26T17:31:11.326Z,1.95
2023-04-26T17:33:37.748Z,1.92
2023-04-26T17:36:04.298Z,1.73
2023-04-26T17:38:30.606Z,1.90
2023-04-26T17:40:56.939Z,1.38
2023-04-26T17:43:23.386Z,1.63
2023-04-26T17:45:49.837Z,2.00
2023-04-26T17:48:16.981Z,1.80
2023-04-26T17:50:43.806Z,1.95
2023-04-26T17:53:10.179Z,1.98
2023-04-26T17:55:36.589Z,1.85
2023-04-26T17:58:02.898Z,1.73
2023-04-26T18:00:31.806Z,1.80
2023-04-26T18:02:59.316Z,2.17
2023-04-26T18:05:26.045Z,2.17
2023-04-26T18:07:52.368Z,1.60
2023-04-26T18:10:18.762Z,1.67
2023-04-26T18:12:45.166Z,1.50
2023-04-26T18:15:12.312Z,2.00
2023-04-26T18:17:38.701Z,1.77
2023-04-26T18:20:05.307Z,1.70
2023-04-26T18:22:31.730Z,1.85
2023-04-26T18:24:58.358Z,2.15
2023-04-26T18:27:24.819Z,2.53
2023-04-26T18:29:51.234Z,1.55
2023-04-26T18:32:18.594Z,1.80
2023-04-26T18:34:44.911Z,1.70
2023-04-26T18:37:11.557Z,1.60
2023-04-26T18:39:39.016Z,1.35
2023-04-26T18:42:05.552Z,1.40
2023-04-26T18:44:32.198Z,2.15
2023-04-26T18:46:58.876Z,1.65
2023-04-26T18:49:27.143Z,1.45
2023-04-26T18:51:53.725Z,2.05
2023-04-26T18:54:20.087Z,1.67
2023-04-26T18:56:46.398Z,1.80
2023-04-26T18:59:12.883Z,2.05
2023-04-26T19:01:39.726Z,1.80
2023-04-26T19:04:06.290Z,2.13
2023-04-26T19:06:32.804Z,2.75
2023-04-26T19:08:59.428Z,2.20
2023-04-26T19:11:25.797Z,1.63
2023-04-26T19:13:52.035Z,2.05
2023-04-26T19:16:21.321Z,1.80
2023-04-26T19:18:49.026Z,1.90
2023-04-26T19:21:15.757Z,1.70
2023-04-26T19:23:45.399Z,2.42
2023-04-26T19:26:12.968Z,2.53
2023-04-26T19:28:39.437Z,2.80
2023-04-26T19:31:05.960Z,2.00
2023-04-26T19:33:32.463Z,2.10
2023-04-26T19:35:59.400Z,1.70
2023-04-26T19:38:25.956Z,2.00
2023-04-26T19:40:53.040Z,1.85
2023-04-26T19:43:19.959Z,1.98
2023-04-26T19:45:46.608Z,1.70
2023-04-26T19:48:13.335Z,2.08
2023-04-26T19:50:43.712Z,1.73
2023-04-26T19:53:12.909Z,2.00
2023-04-26T19:55:39.892Z,1.80
2023-04-26T19:58:06.882Z,2.33
2023-04-26T20:00:36.108Z,2.17
2023-04-26T20:03:02.828Z,2.40
2023-04-26T20:05:30.260Z,2.40
2023-04-26T20:07:57.452Z,2.40
2023-04-26T20:10:24.133Z,2.45
2023-04-26T20:12:50.751Z,2.50
2023-04-26T20:15:17.668Z,1.85
2023-04-26T20:17:44.714Z,2.42
2023-04-26T20:20:12.104Z,2.47
2023-04-26T20:22:41.648Z,3.22
2023-04-26T20:25:08.227Z,2.95
2023-04-26T20:27:34.692Z,2.92
2023-04-26T20:30:01.540Z,2.95
2023-04-26T20:32:28.119Z,2.97
2023-04-26T20:34:54.809Z,3.35
2023-04-26T20:37:21.803Z,3.30
2023-04-26T20:39:48.290Z,3.33
2023-04-26T20:42:14.610Z,3.55
2023-04-26T20:44:41.173Z,3.42
2023-04-26T20:47:07.874Z,3.30
2023-04-26T20:49:34.360Z,3.00
2023-04-26T20:52:00.969Z,2.97
2023-04-26T20:54:27.303Z,3.35
2023-04-26T20:56:53.611Z,3.03
2023-04-26T20:59:20.168Z,3.35
2023-04-26T21:01:46.604Z,2.92
2023-04-26T21:04:13.076Z,3.30
2023-04-26T21:06:39.624Z,3.15
2023-04-26T21:09:06.166Z,3.38
2023-04-26T21:11:32.725Z,2.90
2023-04-26T21:13:59.617Z,3.00
2023-04-26T21:16:26.237Z,3.17
2023-04-26T21:18:52.826Z,3.13
2023-04-26T21:21:19.166Z,3.53
2023-04-26T21:23:45.538Z,3.53
2023-04-26T21:26:11.926Z,3.13
2023-04-26T21:28:38.239Z,3.70
2023-04-26T21:31:05.442Z,3.95
2023-04-26T21:33:32.218Z,3.55
2023-04-26T21:36:00.499Z,4.18
2023-04-26T21:38:27.212Z,3.78
2023-04-26T21:40:53.662Z,4.65
2023-04-26T21:43:21.490Z,4.13
2023-04-26T21:45:50.096Z,4.65
2023-04-26T21:48:16.600Z,4.28
2023-04-26T21:50:42.913Z,4.07
2023-04-26T21:53:09.245Z,3.60
2023-04-26T21:55:35.632Z,4.40
2023-04-26T21:58:01.945Z,5.18
2023-04-26T22:00:28.583Z,4.57
2023-04-26T22:02:55.291Z,4.85
2023-04-26T22:05:22.260Z,4.70
2023-04-26T22:07:48.637Z,4.90
2023-04-26T22:10:16.311Z,5.60
2023-04-26T22:12:42.724Z,4.88
2023-04-26T22:15:09.259Z,5.45
2023-04-26T22:17:35.728Z,5.03
2023-04-26T22:20:02.160Z,5.28
2023-04-26T22:22:28.559Z,5.32
2023-04-26T22:24:54.919Z,5.65
2023-04-26T22:27:21.428Z,5.85
2023-04-26T22:29:47.797Z,5.93
2023-04-26T22:32:14.198Z,5.55
2023-04-26T22:34:42.330Z,5.40
2023-04-26T22:37:20.088Z,5.80
2023-04-26T22:39:47.574Z,5.47
2023-04-26T22:42:13.917Z,6.20
2023-04-26T22:44:40.436Z,6.40
2023-04-26T22:47:06.895Z,6.60
2023-04-26T22:49:33.683Z,6.72
2023-04-26T22:52:09.422Z,6.47
2023-04-26T22:54:38.324Z,6.47
2023-04-26T22:57:05.599Z,6.72
2023-04-26T22:59:34.173Z,6.78
2023-04-26T23:02:01.328Z,6.38
2023-04-26T23:04:27.712Z,6.63
2023-04-26T23:06:54.106Z,6.63
2023-04-26T23:09:20.789Z,7.70
2023-04-26T23:11:47.533Z,6.30
2023-04-26T23:14:15.584Z,7.28
2023-04-26T23:16:42.445Z,7.32
2023-04-26T23:19:09.589Z,7.68
2023-04-26T23:21:36.281Z,7.05
2023-04-26T23:24:02.655Z,8.15
2023-04-26T23:26:29.143Z,7.47
2023-04-26T23:28:55.866Z,7.57
2023-04-26T23:31:22.215Z,7.40
2023-04-26T23:33:48.774Z,8.05
2023-04-26T23:36:15.091Z,6.68
2023-04-26T23:38:41.852Z,7.68
2023-04-26T23:41:08.157Z,7.75
2023-04-26T23:43:34.477Z,7.28
2023-04-26T23:46:00.978Z,8.25
2023-04-26T23:48:27.383Z,7.20
2023-04-26T23:50:53.673Z,6.88
2023-04-26T23:53:20.029Z,8.73
2023-04-26T23:55:46.850Z,7.85
2023-04-26T23:58:13.176Z,6.72
